Time;durP1;ratioP1;P1;durP2;ratioP2;P2;SDS_P1;SDS_P2;PMS_P1;PMS_P2;Temp;Humidity;BMP_temperature;BMP_pressure;BME280_temperature;BME280_humidity;BME280_pressure;Samples;Min_cycle;Max_cycle;Signal;HPM_P1;HPM_P2
2022/05/11 00:01:38;;;;;;;2.80;1.70;;;18.70;99.90;;;;;;5115944;28;20452;-55
2022/05/11 00:04:07;;;;;;;2.60;1.93;;;18.60;99.90;;;;;;5116114;28;20583;-54
2022/05/11 00:06:34;;;;;;;1.70;1.60;;;18.50;99.90;;;;;;5115691;28;20507;-56
2022/05/11 00:09:02;;;;;;;2.53;1.60;;;18.50;99.90;;;;;;5115080;28;20759;-56
2022/05/11 00:11:32;;;;;;;2.33;1.63;;;18.50;99.90;;;;;;5114411;28;20465;-54
2022/05/11 00:14:00;;;;;;;2.57;1.53;;;18.50;99.90;;;;;;5114915;28;20494;-56
2022/05/11 00:16:28;;;;;;;2.70;1.53;;;18.50;73.20;;;;;;5114318;28;20521;-55
2022/05/11 00:18:56;;;;;;;4.23;2.17;;;18.50;21.30;;;;;;5115024;28;20484;-56
2022/05/11 00:24:22;;;;;;;4.20;1.70;;;18.50;1.00;;;;;;5096931;28;20476;-55
2022/05/11 00:29:50;;;;;;;2.53;1.77;;;18.40;84.00;;;;;;5106532;28;20571;-56
2022/05/11 00:35:57;;;;;;;4.83;1.60;;;18.40;90.50;;;;;;5115953;28;20419;-56
2022/05/11 00:38:26;;;;;;;2.33;1.20;;;18.40;38.80;;;;;;5118732;28;20494;-56
2022/05/11 00:40:56;;;;;;;1.53;1.20;;;18.40;1.00;;;;;;5134984;27;20432;-54
2022/05/11 00:43:39;;;;;;;2.10;1.20;;;18.40;1.00;;;;;;5139998;27;20538;-56
2022/05/11 00:46:42;;;;;;;1.53;1.07;;;18.50;1.00;;;;;;5140321;27;20526;-53
2022/05/11 00:49:55;;;;;;;1.43;1.10;;;18.50;1.00;;;;;;5140155;27;20779;-55
2022/05/11 00:52:26;;;;;;;2.60;1.00;;;18.50;99.90;;;;;;5138709;27;20909;-59
2022/05/11 00:55:02;;;;;;;1.20;0.90;;;18.60;99.90;;;;;;5138237;27;20462;-57
2022/05/11 00:57:35;;;;;;;2.03;1.00;;;18.70;99.90;;;;;;5138453;27;20536;-56
2022/05/11 01:00:10;;;;;;;1.23;1.03;;;18.80;99.90;;;;;;5138754;27;20542;-54
2022/05/11 01:02:38;;;;;;;1.20;1.00;;;18.90;99.90;;;;;;5138685;27;20517;-57
2022/05/11 01:05:08;;;;;;;1.50;1.03;;;18.90;99.90;;;;;;5138943;27;20822;-54
2022/05/11 01:07:36;;;;;;;1.20;0.90;;;18.90;99.90;;;;;;5139249;27;20866;-54
2022/05/11 01:10:04;;;;;;;1.73;0.90;;;18.90;77.10;;;;;;5138132;27;20899;-55
2022/05/11 01:12:36;;;;;;;1.50;1.07;;;19.00;79.30;;;;;;5138045;27;20459;-55
2022/05/11 01:15:05;;;;;;;1.43;0.87;;;18.90;94.60;;;;;;5138820;27;20879;-56
2022/05/11 01:17:55;;;;;;;1.70;1.03;;;18.90;99.90;;;;;;5138978;27;20451;-57
2022/05/11 01:20:23;;;;;;;1.60;0.97;;;18.90;99.90;;;;;;5138820;27;20505;-55
2022/05/11 01:23:00;;;;;;;1.33;0.90;;;18.80;99.90;;;;;;5135625;27;20516;-56
2022/05/11 01:25:30;;;;;;;2.00;0.97;;;18.70;99.90;;;;;;5119013;28;20484;-56
2022/05/11 01:28:18;;;;;;;1.30;1.07;;;18.60;99.90;;;;;;5137040;27;20839;-56
2022/05/11 01:33:37;;;;;;;1.50;1.00;;;18.40;99.90;;;;;;5128387;27;20504;-54
2022/05/11 01:36:10;;;;;;;1.73;1.10;;;18.40;99.90;;;;;;5134919;27;20459;-53
2022/05/11 01:38:42;;;;;;;1.30;0.90;;;18.40;1.00;;;;;;5134701;27;20566;-55
2022/05/11 01:41:14;;;;;;;1.10;0.90;;;18.30;1.00;;;;;;5131678;27;20485;-56
2022/05/11 01:43:41;;;;;;;1.63;1.20;;;18.30;1.00;;;;;;5136233;27;20941;-54
2022/05/11 01:46:09;;;;;;;2.13;0.93;;;18.30;1.00;;;;;;5137609;27;20479;-55
2022/05/11 01:48:37;;;;;;;1.47;1.10;;;18.30;1.00;;;;;;5134639;27;20460;-54
2022/05/11 01:51:04;;;;;;;1.70;1.20;;;18.40;99.90;;;;;;5136600;27;20443;-54
2022/05/11 01:53:31;;;;;;;1.40;1.00;;;18.30;1.00;;;;;;5139007;27;20483;-55
2022/05/11 01:55:58;;;;;;;1.43;1.33;;;18.30;1.00;;;;;;5135888;27;20447;-56
2022/05/11 01:58:26;;;;;;;3.27;1.00;;;18.30;1.00;;;;;;5130806;27;20480;-55
2022/05/11 02:00:54;;;;;;;1.17;0.97;;;18.20;1.00;;;;;;5134055;27;20846;-55
2022/05/11 02:08:51;;;;;;;2.10;0.90;;;18.10;1.00;;;;;;5121644;27;20455;-56
2022/05/11 02:11:19;;;;;;;1.63;1.00;;;18.00;1.00;;;;;;5135748;27;20459;-56
2022/05/11 02:13:47;;;;;;;1.23;0.93;;;18.00;1.00;;;;;;5133572;27;20470;-57
2022/05/11 02:16:15;;;;;;;1.20;1.00;;;18.00;1.00;;;;;;5136551;27;20493;-55
2022/05/11 02:18:42;;;;;;;4.23;1.00;;;18.00;1.00;;;;;;5134610;27;20460;-57
2022/05/11 02:21:15;;;;;;;1.70;1.10;;;18.00;1.00;;;;;;5135016;27;20463;-53
2022/05/11 02:23:47;;;;;;;1.80;1.10;;;18.00;1.00;;;;;;5135769;27;20947;-51
2022/05/11 02:26:14;;;;;;;1.20;1.00;;;18.00;1.00;;;;;;5137431;27;20486;-56
2022/05/11 02:28:41;;;;;;;1.50;1.07;;;18.00;1.00;;;;;;5136351;27;20460;-57
2022/05/11 02:31:10;;;;;;;1.50;1.10;;;18.00;1.00;;;;;;5134710;27;20463;-52
2022/05/11 02:33:39;;;;;;;1.57;0.90;;;17.90;1.00;;;;;;5135111;27;20459;-54
2022/05/11 02:36:07;;;;;;;1.50;1.00;;;17.90;38.70;;;;;;5135077;27;20479;-54
2022/05/11 02:38:37;;;;;;;1.67;1.20;;;17.90;99.90;;;;;;5135866;27;20471;-53
2022/05/11 02:41:09;;;;;;;2.00;1.13;;;17.90;99.90;;;;;;5134521;27;20513;-56
2022/05/11 02:53:40;;;;;;;1.63;1.10;;;17.90;99.90;;;;;;5138073;27;20448;-54
2022/05/11 02:56:07;;;;;;;1.50;1.20;;;17.90;99.90;;;;;;5137464;27;20490;-56
2022/05/11 02:58:34;;;;;;;1.20;1.07;;;17.80;99.90;;;;;;5137110;27;20587;-54
2022/05/11 03:10:41;;;;;;;1.40;1.00;;;17.80;1.00;;;;;;5053535;28;20402;-56
2022/05/11 03:13:09;;;;;;;1.50;1.00;;;17.80;1.00;;;;;;5096000;28;20900;-54
2022/05/11 03:15:36;;;;;;;1.33;1.10;;;17.70;1.00;;;;;;5134580;27;20925;-53
2022/05/11 03:18:03;;;;;;;1.53;1.10;;;17.70;1.00;;;;;;5136370;27;20491;-52
2022/05/11 03:20:30;;;;;;;1.13;0.93;;;17.70;1.00;;;;;;5135079;27;20566;-54
2022/05/11 03:22:57;;;;;;;1.30;1.00;;;17.70;1.00;;;;;;5135704;27;20483;-56
2022/05/11 03:25:25;;;;;;;1.83;1.10;;;17.60;1.00;;;;;;5136392;27;20484;-56
2022/05/11 03:27:54;;;;;;;1.63;1.10;;;17.60;58.10;;;;;;5134305;27;20784;-55
2022/05/11 03:30:22;;;;;;;1.40;1.10;;;17.60;99.90;;;;;;5134584;27;20466;-54
2022/05/11 03:35:34;;;;;;;1.27;0.90;;;17.50;99.90;;;;;;5137449;27;20419;-51
2022/05/11 03:38:00;;;;;;;1.40;1.07;;;17.50;99.90;;;;;;5134291;27;20966;-56
2022/05/11 03:40:27;;;;;;;1.80;1.20;;;17.50;99.90;;;;;;5136153;27;20824;-55
2022/05/11 03:42:55;;;;;;;1.83;1.10;;;17.40;99.90;;;;;;5136213;27;20462;-56
2022/05/11 03:45:25;;;;;;;1.50;1.10;;;17.50;99.90;;;;;;5135309;27;21026;-55
2022/05/11 03:47:52;;;;;;;1.37;0.97;;;17.40;1.00;;;;;;5135907;27;20455;-56
2022/05/11 03:50:22;;;;;;;1.33;1.00;;;17.40;1.00;;;;;;5134844;27;20978;-56
2022/05/11 03:52:49;;;;;;;1.40;1.20;;;17.40;1.00;;;;;;5136279;28;20955;-56
2022/05/11 03:55:17;;;;;;;1.50;1.00;;;17.30;1.00;;;;;;5131592;28;20459;-55
2022/05/11 03:57:43;;;;;;;1.70;1.07;;;17.30;99.90;;;;;;5134551;28;20929;-55
2022/05/11 04:00:15;;;;;;;1.17;0.90;;;17.40;99.90;;;;;;5135250;28;20549;-56
2022/05/11 04:02:43;;;;;;;2.63;1.10;;;17.40;99.90;;;;;;5115364;28;20447;-51
2022/05/11 04:05:10;;;;;;;1.37;0.97;;;17.40;26.30;;;;;;5118043;28;20522;-56
2022/05/11 04:07:37;;;;;;;1.70;1.00;;;17.40;1.00;;;;;;5113880;28;20703;-53
2022/05/11 04:10:05;;;;;;;1.20;1.00;;;17.40;89.50;;;;;;5117240;28;20562;-56
2022/05/11 04:12:32;;;;;;;2.87;0.97;;;17.40;99.90;;;;;;5134873;27;20553;-52
2022/05/11 04:14:59;;;;;;;4.37;0.90;;;17.30;99.90;;;;;;5137330;27;20554;-56
2022/05/11 04:17:27;;;;;;;1.50;1.00;;;17.30;99.90;;;;;;5136035;27;20743;-54
2022/05/11 04:19:54;;;;;;;1.50;1.10;;;17.20;99.90;;;;;;5136745;27;20577;-55
2022/05/11 04:22:21;;;;;;;1.60;1.17;;;17.30;99.90;;;;;;5137820;27;20539;-56
2022/05/11 04:24:48;;;;;;;1.30;0.90;;;17.20;1.00;;;;;;5137639;27;20463;-55
2022/05/11 04:27:15;;;;;;;1.47;1.10;;;17.20;1.00;;;;;;5139159;27;20443;-52
2022/05/11 04:29:42;;;;;;;1.37;1.00;;;17.10;1.00;;;;;;5139189;27;20453;-55
2022/05/11 04:32:10;;;;;;;2.47;1.20;;;17.10;1.00;;;;;;5137086;27;20554;-53
2022/05/11 04:34:40;;;;;;;1.40;1.00;;;17.10;1.00;;;;;;5138209;27;20463;-54
2022/05/11 04:37:07;;;;;;;2.40;1.40;;;17.10;1.00;;;;;;5135797;27;20459;-55
2022/05/11 04:39:34;;;;;;;1.60;1.00;;;17.00;1.00;;;;;;5135054;27;20466;-52
2022/05/11 04:42:01;;;;;;;2.00;0.80;;;17.00;1.00;;;;;;5128658;27;20565;-52
2022/05/11 04:44:28;;;;;;;1.47;1.00;;;17.00;1.00;;;;;;5123446;27;20555;-52
2022/05/11 04:46:55;;;;;;;1.20;0.90;;;17.00;1.00;;;;;;5134010;27;20475;-53
2022/05/11 04:49:23;;;;;;;1.67;1.17;;;17.00;1.00;;;;;;5129315;27;20570;-55
2022/05/11 04:51:59;;;;;;;4.50;1.00;;;17.00;1.00;;;;;;5126455;27;20455;-56
2022/05/11 04:54:26;;;;;;;1.97;1.10;;;17.00;1.00;;;;;;5135140;27;20495;-55
2022/05/11 04:56:53;;;;;;;1.80;1.10;;;17.00;1.00;;;;;;5133078;27;20809;-54
2022/05/11 04:59:22;;;;;;;1.27;1.00;;;17.00;1.00;;;;;;5138853;27;20558;-56
2022/05/11 05:01:48;;;;;;;1.30;0.90;;;17.10;99.90;;;;;;5135431;27;20452;-55
2022/05/11 05:04:16;;;;;;;2.50;1.13;;;17.00;99.90;;;;;;5137545;27;20467;-55
2022/05/11 05:06:43;;;;;;;1.30;1.20;;;17.00;99.90;;;;;;5130627;27;20475;-55
2022/05/11 05:09:11;;;;;;;2.00;1.00;;;17.00;99.90;;;;;;5132233;27;20467;-54
2022/05/11 05:11:38;;;;;;;1.80;1.20;;;17.00;99.90;;;;;;5122327;27;20484;-55
2022/05/11 05:14:06;;;;;;;1.23;1.00;;;17.00;99.90;;;;;;5133004;27;20881;-55
2022/05/11 05:16:33;;;;;;;1.30;1.07;;;17.00;99.90;;;;;;5122011;27;21083;-55
2022/05/11 05:19:01;;;;;;;1.73;0.90;;;17.00;99.90;;;;;;5134678;27;20915;-54
2022/05/11 05:21:28;;;;;;;1.50;1.20;;;17.10;2.00;;;;;;5136884;27;20459;-53
2022/05/11 05:23:55;;;;;;;1.30;0.90;;;17.10;1.00;;;;;;5135233;27;20487;-56
2022/05/11 05:26:23;;;;;;;1.13;0.87;;;17.20;1.00;;;;;;5132509;27;20845;-52
2022/05/11 05:31:34;;;;;;;0.97;0.70;;;17.30;1.00;;;;;;5121608;27;20879;-54
2022/05/11 05:34:01;;;;;;;1.47;1.00;;;17.30;1.00;;;;;;5124004;27;20461;-54
2022/05/11 05:36:30;;;;;;;1.47;0.90;;;17.30;1.00;;;;;;5129827;27;20544;-52
2022/05/11 05:38:58;;;;;;;4.50;1.00;;;17.40;1.00;;;;;;5128638;27;20436;-52
2022/05/11 05:41:27;;;;;;;1.70;1.20;;;17.40;1.00;;;;;;5125926;27;20513;-54
2022/05/11 05:43:54;;;;;;;2.23;1.00;;;17.50;1.00;;;;;;5135245;27;20478;-54
2022/05/11 05:46:21;;;;;;;1.20;1.00;;;17.60;99.90;;;;;;5131175;27;20507;-53
2022/05/11 05:48:48;;;;;;;1.30;1.10;;;17.60;99.90;;;;;;5132507;27;20455;-54
2022/05/11 05:51:16;;;;;;;4.53;1.17;;;17.70;99.90;;;;;;5134040;27;20962;-54
2022/05/11 05:53:45;;;;;;;1.23;1.00;;;17.80;99.90;;;;;;5130355;27;20828;-52
2022/05/11 05:56:12;;;;;;;2.00;1.00;;;17.80;99.90;;;;;;5124332;27;20455;-54
2022/05/11 05:58:43;;;;;;;2.07;1.00;;;17.90;99.90;;;;;;5134719;27;20435;-51
2022/05/11 06:01:10;;;;;;;1.40;0.93;;;18.00;99.90;;;;;;5127326;27;20455;-53
2022/05/11 06:03:38;;;;;;;1.80;1.00;;;18.10;36.40;;;;;;5125411;27;20466;-55
2022/05/11 06:06:06;;;;;;;1.60;1.00;;;18.20;14.80;;;;;;5126078;27;20996;-57
2022/05/11 06:08:33;;;;;;;1.40;1.00;;;18.30;1.00;;;;;;5122833;27;20460;-54
2022/05/11 06:11:02;;;;;;;1.70;1.20;;;18.40;30.00;;;;;;5127382;27;20563;-58
2022/05/11 06:13:29;;;;;;;1.93;1.00;;;18.50;1.00;;;;;;5121485;27;20820;-53
2022/05/11 06:15:57;;;;;;;1.50;1.00;;;18.60;1.00;;;;;;5124391;27;20540;-55
2022/05/11 06:18:25;;;;;;;1.37;0.90;;;18.70;1.00;;;;;;5127719;27;20548;-53
2022/05/11 06:20:52;;;;;;;2.33;1.07;;;18.90;1.00;;;;;;5122192;27;21161;-56
2022/05/11 06:23:20;;;;;;;1.63;1.10;;;19.10;1.00;;;;;;5128824;27;20459;-58
2022/05/11 06:25:49;;;;;;;3.07;1.10;;;19.20;1.00;;;;;;5130053;27;20502;-55
2022/05/11 06:28:16;;;;;;;1.20;1.00;;;19.30;99.90;;;;;;5128047;27;20459;-50
2022/05/11 06:30:43;;;;;;;2.07;1.10;;;19.50;99.90;;;;;;5128949;27;20458;-61
2022/05/11 06:33:11;;;;;;;1.43;0.90;;;19.60;99.90;;;;;;5132630;27;20507;-62
2022/05/11 06:35:38;;;;;;;1.70;1.00;;;19.70;99.90;;;;;;5121693;27;21090;-60
2022/05/11 06:38:07;;;;;;;1.40;1.00;;;19.80;99.90;;;;;;5133139;27;20879;-61
2022/05/11 06:40:34;;;;;;;1.30;1.00;;;19.90;99.40;;;;;;5121510;27;20460;-61
2022/05/11 06:43:02;;;;;;;1.10;0.80;;;20.10;38.60;;;;;;5122265;27;20453;-61
2022/05/11 06:45:29;;;;;;;1.23;0.93;;;20.20;11.10;;;;;;5121776;27;20547;-61
2022/05/11 06:47:56;;;;;;;1.43;0.87;;;20.20;1.00;;;;;;5114033;27;20461;-61
2022/05/11 06:50:26;;;;;;;1.30;0.80;;;20.30;1.00;;;;;;5129045;27;20443;-63
2022/05/11 06:52:53;;;;;;;1.33;0.97;;;20.40;1.00;;;;;;5127360;27;20455;-62
2022/05/11 07:00:49;;;;;;;4.07;1.30;;;20.60;1.00;;;;;;5121953;27;20477;-62
2022/05/11 07:03:17;;;;;;;1.13;0.90;;;20.60;1.00;;;;;;5126015;27;20450;-62
2022/05/11 07:05:47;;;;;;;1.10;0.80;;;20.70;1.00;;;;;;5125685;27;20456;-63
2022/05/11 07:08:14;;;;;;;2.87;1.00;;;20.90;1.00;;;;;;5114330;27;20797;-62
2022/05/11 07:10:43;;;;;;;1.30;0.93;;;20.90;1.00;;;;;;5123284;27;20453;-62
2022/05/11 07:13:10;;;;;;;1.00;0.80;;;21.00;1.00;;;;;;5124101;27;20201;-63
2022/05/11 07:15:37;;;;;;;1.30;1.00;;;21.10;1.00;;;;;;5115691;27;20919;-63
2022/05/11 07:18:04;;;;;;;1.10;0.80;;;21.20;1.00;;;;;;5126249;27;20460;-62
2022/05/11 07:20:36;;;;;;;1.63;0.80;;;21.30;1.00;;;;;;5121193;27;20488;-63
2022/05/11 07:23:06;;;;;;;1.23;1.00;;;21.30;1.00;;;;;;5130434;27;20517;-62
2022/05/11 07:25:34;;;;;;;1.50;0.90;;;21.40;1.00;;;;;;5122126;27;20537;-63
2022/05/11 07:28:01;;;;;;;1.20;1.10;;;21.50;1.00;;;;;;5131891;27;20486;-62
2022/05/11 07:30:32;;;;;;;1.20;0.87;;;21.60;1.00;;;;;;5130733;27;20464;-62
2022/05/11 07:33:00;;;;;;;1.00;0.90;;;21.70;1.00;;;;;;5128381;27;20436;-62
2022/05/11 07:35:26;;;;;;;1.30;0.90;;;21.80;1.00;;;;;;5121877;27;20533;-62
2022/05/11 07:37:53;;;;;;;1.90;0.90;;;21.80;1.00;;;;;;5129757;27;20510;-63
2022/05/11 07:40:24;;;;;;;1.77;0.90;;;21.90;1.00;;;;;;5123760;27;20497;-63
2022/05/11 07:42:51;;;;;;;0.90;0.80;;;22.00;1.00;;;;;;5123092;27;20459;-63
2022/05/11 07:45:19;;;;;;;3.33;0.90;;;22.00;1.00;;;;;;5132493;27;20468;-65
2022/05/11 07:47:46;;;;;;;1.00;0.87;;;22.10;1.00;;;;;;5130767;27;20508;-64
2022/05/11 07:50:15;;;;;;;1.40;0.90;;;22.30;1.00;;;;;;5130936;27;22024;-61
2022/05/11 07:52:41;;;;;;;1.00;0.73;;;22.40;1.00;;;;;;5130608;28;20462;-61
2022/05/11 07:55:09;;;;;;;1.00;0.70;;;22.50;1.00;;;;;;5130545;28;20466;-61
2022/05/11 08:00:22;;;;;;;1.20;0.80;;;22.60;1.00;;;;;;5125407;28;20430;-60
2022/05/11 08:02:49;;;;;;;1.17;0.90;;;22.60;1.00;;;;;;5131775;28;20483;-59
2022/05/11 08:05:18;;;;;;;1.10;0.80;;;22.60;1.00;;;;;;5128260;28;20557;-61
2022/05/11 08:07:48;;;;;;;1.10;0.70;;;22.70;1.00;;;;;;5119199;28;20519;-61
2022/05/11 08:10:19;;;;;;;1.20;0.90;;;22.80;1.00;;;;;;5124564;28;20452;-61
2022/05/11 08:12:49;;;;;;;1.00;0.80;;;22.90;1.00;;;;;;5127071;28;20747;-62
2022/05/11 08:15:18;;;;;;;1.40;0.77;;;23.00;1.00;;;;;;5132012;28;20480;-61
2022/05/11 08:17:46;;;;;;;0.90;0.80;;;23.10;1.00;;;;;;5128710;28;20550;-62
2022/05/11 08:20:16;;;;;;;0.90;0.70;;;23.30;1.00;;;;;;5128567;28;20473;-60
2022/05/11 08:22:44;;;;;;;1.10;0.83;;;23.30;1.00;;;;;;5122585;28;20904;-60
2022/05/11 08:25:12;;;;;;;1.00;0.80;;;23.40;1.00;;;;;;5127733;28;20953;-60
2022/05/11 08:27:41;;;;;;;1.20;0.70;;;23.40;1.00;;;;;;5124648;28;20582;-61
2022/05/11 08:35:41;;;;;;;1.27;0.90;;;23.40;1.00;;;;;;5125492;28;21105;-60
2022/05/11 08:38:11;;;;;;;2.03;0.80;;;23.50;1.00;;;;;;5127333;28;21063;-60
2022/05/11 08:40:46;;;;;;;1.60;0.87;;;23.60;1.00;;;;;;5123836;27;20932;-60
2022/05/11 08:43:15;;;;;;;1.00;0.80;;;23.70;1.00;;;;;;5127138;27;20827;-61
2022/05/11 08:45:51;;;;;;;1.20;0.90;;;23.70;1.00;;;;;;5118527;27;20976;-61
2022/05/11 08:48:26;;;;;;;1.67;0.90;;;23.90;1.00;;;;;;5121104;27;20507;-60
2022/05/11 08:50:53;;;;;;;2.50;1.00;;;24.00;1.00;;;;;;5117598;27;20464;-60
2022/05/11 08:53:32;;;;;;;1.10;0.90;;;24.20;1.00;;;;;;5115594;28;20452;-61
2022/05/11 08:56:02;;;;;;;1.47;0.93;;;24.20;1.00;;;;;;5119599;28;20558;-60
2022/05/11 08:58:34;;;;;;;1.30;1.07;;;24.20;1.00;;;;;;5119186;27;20460;-62
2022/05/11 09:01:05;;;;;;;1.20;1.00;;;24.30;1.00;;;;;;5124562;27;20462;-63
2022/05/11 09:03:35;;;;;;;1.03;0.93;;;24.40;1.00;;;;;;5136241;27;20465;-62
2022/05/11 09:06:05;;;;;;;1.53;1.30;;;24.50;1.00;;;;;;5128546;27;21282;-62
2022/05/11 09:08:37;;;;;;;1.53;1.13;;;24.50;1.00;;;;;;5130927;27;20479;-60
2022/05/11 09:11:05;;;;;;;1.10;1.00;;;24.50;1.00;;;;;;5121549;27;20505;-60
2022/05/11 09:13:32;;;;;;;1.50;1.40;;;24.50;1.00;;;;;;5126380;27;21104;-61
2022/05/11 09:16:01;;;;;;;2.33;1.57;;;24.60;1.00;;;;;;5126718;27;20467;-61
2022/05/11 09:18:39;;;;;;;1.73;1.10;;;24.60;1.00;;;;;;5127535;27;20444;-61
2022/05/11 09:21:19;;;;;;;1.50;1.17;;;24.80;1.00;;;;;;5133386;27;20455;-58
2022/05/11 09:23:58;;;;;;;2.27;1.20;;;24.80;1.00;;;;;;5133017;27;20482;-59
2022/05/11 09:26:32;;;;;;;1.57;0.97;;;25.00;1.00;;;;;;5126072;27;20463;-61
2022/05/11 09:29:16;;;;;;;0.93;0.80;;;25.00;1.00;;;;;;5132838;27;20924;-61
2022/05/11 09:31:45;;;;;;;1.23;1.00;;;25.20;1.00;;;;;;5125419;27;20471;-64
2022/05/11 09:34:15;;;;;;;1.43;1.00;;;25.20;1.00;;;;;;5132566;27;20546;-62
2022/05/11 09:36:52;;;;;;;2.07;1.10;;;25.30;1.00;;;;;;5136591;27;20528;-64
2022/05/11 09:39:19;;;;;;;1.43;1.00;;;25.30;1.00;;;;;;5133473;27;20844;-63
2022/05/11 09:41:49;;;;;;;1.87;1.07;;;25.30;1.00;;;;;;5132911;27;20484;-63
2022/05/11 09:44:21;;;;;;;2.27;1.00;;;25.40;1.00;;;;;;5127457;27;20464;-63
2022/05/11 09:46:48;;;;;;;1.70;1.20;;;25.40;1.00;;;;;;5132648;27;21060;-62
2022/05/11 09:49:27;;;;;;;1.27;1.17;;;25.50;1.00;;;;;;5132048;27;20466;-62
2022/05/11 09:51:56;;;;;;;1.30;1.10;;;25.60;1.00;;;;;;5134826;27;20943;-62
2022/05/11 09:54:29;;;;;;;2.60;1.20;;;25.60;1.00;;;;;;5136192;27;20546;-63
2022/05/11 09:57:02;;;;;;;1.53;1.20;;;25.60;1.00;;;;;;5131234;27;20944;-59
2022/05/11 09:59:32;;;;;;;1.20;1.00;;;25.70;1.00;;;;;;5134404;27;20954;-60
2022/05/11 10:02:13;;;;;;;2.00;0.90;;;25.90;1.00;;;;;;5126518;27;20539;-61
2022/05/11 10:04:48;;;;;;;1.20;1.10;;;26.00;1.00;;;;;;5128614;27;20914;-62
2022/05/11 10:07:19;;;;;;;1.30;1.10;;;26.10;1.00;;;;;;5130014;27;20470;-63
2022/05/11 10:09:51;;;;;;;2.90;1.50;;;26.40;1.00;;;;;;5129877;27;20456;-62
2022/05/11 10:12:23;;;;;;;1.57;1.20;;;26.50;1.00;;;;;;5128513;27;20559;-60
2022/05/11 10:23:19;;;;;;;1.10;0.90;;;27.50;1.00;;;;;;5131226;27;20451;-62
2022/05/11 10:25:50;;;;;;;1.10;1.00;;;27.70;1.00;;;;;;5129333;27;20461;-64
2022/05/11 10:28:27;;;;;;;1.30;0.90;;;27.70;1.00;;;;;;5125988;27;20985;-64
2022/05/11 10:30:59;;;;;;;1.83;1.00;;;27.50;1.00;;;;;;5127525;27;20483;-67
2022/05/11 10:33:50;;;;;;;1.60;1.50;;;27.50;1.00;;;;;;5128841;27;20480;-63
2022/05/11 10:36:30;;;;;;;1.23;1.10;;;27.80;1.00;;;;;;5112591;27;20443;-65
2022/05/11 10:39:07;;;;;;;1.00;0.90;;;28.10;1.00;;;;;;5115397;27;21153;-62
2022/05/11 10:41:42;;;;;;;1.03;0.90;;;28.20;1.00;;;;;;5123562;27;20529;-63
2022/05/11 10:44:26;;;;;;;1.00;0.90;;;28.10;1.00;;;;;;5127322;27;20520;-63
2022/05/11 10:47:03;;;;;;;1.60;1.13;;;27.90;1.00;;;;;;5116428;27;20539;-63
2022/05/11 10:49:44;;;;;;;1.10;0.90;;;28.10;1.00;;;;;;5123487;27;20461;-63
2022/05/11 10:52:29;;;;;;;1.57;1.00;;;28.40;1.00;;;;;;5122931;27;20456;-64
2022/05/11 10:55:15;;;;;;;1.00;0.90;;;28.60;1.00;;;;;;5127627;27;20871;-64
2022/05/11 10:57:52;;;;;;;1.30;1.00;;;28.50;1.00;;;;;;5127247;27;20559;-62
2022/05/11 11:00:22;;;;;;;1.90;0.90;;;28.50;1.00;;;;;;5121245;27;20546;-63
2022/05/11 11:03:03;;;;;;;1.17;0.80;;;28.90;1.00;;;;;;5130555;27;20490;-63
2022/05/11 11:05:44;;;;;;;1.00;0.80;;;29.30;1.00;;;;;;5133991;27;20542;-62
2022/05/11 11:08:24;;;;;;;1.90;0.93;;;29.50;1.00;;;;;;5126517;27;20998;-63
2022/05/11 11:10:59;;;;;;;1.67;0.90;;;29.70;1.00;;;;;;5132317;27;20447;-62
2022/05/11 11:13:39;;;;;;;0.93;0.80;;;29.90;1.00;;;;;;5126126;27;20533;-63
2022/05/11 11:16:09;;;;;;;0.87;0.80;;;30.30;1.00;;;;;;5131563;27;20455;-61
2022/05/11 11:18:40;;;;;;;1.00;0.83;;;30.50;1.00;;;;;;5123286;27;20484;-63
2022/05/11 11:21:09;;;;;;;1.73;0.90;;;30.20;1.00;;;;;;5126681;27;20466;-63
2022/05/11 11:23:39;;;;;;;1.10;0.90;;;29.60;1.00;;;;;;5128568;27;20463;-62
2022/05/11 11:26:08;;;;;;;1.50;0.93;;;28.80;1.00;;;;;;5131176;27;20488;-63
2022/05/11 11:29:09;;;;;;;1.20;0.90;;;28.30;1.00;;;;;;5119174;27;20571;-61
2022/05/11 11:32:04;;;;;;;1.03;0.87;;;28.00;1.00;;;;;;5121475;27;20495;-63
2022/05/11 11:34:31;;;;;;;1.00;0.90;;;28.20;1.00;;;;;;5129451;27;20487;-60
2022/05/11 11:37:17;;;;;;;2.10;1.40;;;28.10;1.00;;;;;;5128100;27;20465;-59
2022/05/11 11:39:57;;;;;;;0.90;0.73;;;28.20;1.00;;;;;;5113524;27;20915;-66
2022/05/11 11:42:36;;;;;;;1.90;1.30;;;28.20;1.00;;;;;;5125830;27;20479;-62
2022/05/11 11:45:07;;;;;;;1.87;1.33;;;28.60;1.00;;;;;;5121898;27;20566;-62
2022/05/11 11:47:43;;;;;;;1.63;0.90;;;29.30;1.00;;;;;;5122195;27;20512;-63
2022/05/11 11:50:26;;;;;;;1.77;1.03;;;29.50;1.00;;;;;;5120183;27;20513;-63
2022/05/11 11:53:08;;;;;;;1.03;0.90;;;29.80;1.00;;;;;;5122437;27;20513;-62
2022/05/11 11:55:36;;;;;;;1.53;0.90;;;30.00;1.00;;;;;;5120953;27;20451;-62
2022/05/11 11:58:14;;;;;;;0.80;0.70;;;29.90;1.00;;;;;;5129889;27;20456;-61
2022/05/11 12:01:01;;;;;;;2.00;0.80;;;29.60;1.00;;;;;;5129607;28;20451;-62
2022/05/11 12:03:32;;;;;;;1.10;0.90;;;29.70;1.00;;;;;;5128888;28;20908;-62
2022/05/11 12:15:01;;;;;;;1.10;0.70;;;30.20;1.00;;;;;;5126522;28;20506;-63
2022/05/11 12:17:10;;;;;;;1.00;0.70;;;30.40;1.00;;;;;;5134579;28;20443;-61
2022/05/11 12:19:41;;;;;;;1.07;0.77;;;30.00;1.00;;;;;;5134882;28;20494;-63
2022/05/11 12:22:12;;;;;;;1.57;0.80;;;30.20;1.00;;;;;;5134091;28;20443;-61
2022/05/11 12:24:42;;;;;;;2.37;0.90;;;30.50;1.00;;;;;;5134748;28;20550;-62
2022/05/11 12:27:15;;;;;;;3.20;1.90;;;30.70;1.00;;;;;;5134638;28;20496;-63
2022/05/11 12:29:59;;;;;;;0.90;0.60;;;30.70;1.00;;;;;;5134795;28;20462;-62
2022/05/11 12:32:29;;;;;;;1.00;0.70;;;30.50;1.00;;;;;;5128300;27;20754;-62
2022/05/11 12:34:57;;;;;;;1.40;0.70;;;30.20;1.00;;;;;;5136839;27;21072;-62
2022/05/11 12:37:38;;;;;;;1.20;0.90;;;30.60;1.00;;;;;;5135235;27;20446;-62
2022/05/11 12:40:09;;;;;;;0.93;0.70;;;31.00;1.00;;;;;;5135464;27;20504;-61
2022/05/11 12:42:41;;;;;;;0.80;0.63;;;30.80;1.00;;;;;;5136120;27;20493;-63
2022/05/11 12:45:12;;;;;;;1.37;0.70;;;30.80;1.00;;;;;;5136327;27;21182;-60
2022/05/11 12:47:45;;;;;;;1.13;0.70;;;30.50;1.00;;;;;;5133800;27;20568;-60
2022/05/11 12:50:19;;;;;;;1.20;0.70;;;30.50;1.00;;;;;;5136209;27;20443;-60
2022/05/11 12:52:46;;;;;;;0.90;0.80;;;30.90;1.00;;;;;;5136260;27;20479;-61
2022/05/11 12:55:14;;;;;;;0.80;0.60;;;31.10;1.00;;;;;;5136125;27;20454;-60
2022/05/11 12:57:44;;;;;;;1.23;0.70;;;31.10;1.00;;;;;;5136840;27;20541;-61
2022/05/11 13:00:17;;;;;;;0.73;0.63;;;31.30;1.00;;;;;;5135393;27;20519;-60
2022/05/11 13:02:45;;;;;;;0.90;0.70;;;31.50;1.00;;;;;;5136503;27;20523;-60
2022/05/11 13:05:17;;;;;;;1.20;0.80;;;31.90;1.00;;;;;;5137110;27;20458;-59
2022/05/11 13:07:49;;;;;;;4.97;4.57;;;31.60;1.00;;;;;;5137371;27;20582;-60
2022/05/11 13:10:19;;;;;;;1.57;0.60;;;31.40;1.00;;;;;;5137364;27;20504;-61
2022/05/11 13:12:56;;;;;;;3.87;0.70;;;31.60;1.00;;;;;;5136056;27;20551;-60
2022/05/11 13:15:39;;;;;;;0.80;0.63;;;31.00;1.00;;;;;;5136346;27;20890;-60
2022/05/11 13:18:08;;;;;;;2.90;0.90;;;31.30;1.00;;;;;;5136401;27;20534;-59
2022/05/11 13:20:39;;;;;;;1.87;0.80;;;31.80;1.00;;;;;;5135486;27;20529;-59
2022/05/11 13:23:19;;;;;;;1.20;0.80;;;31.60;1.00;;;;;;5131059;27;20544;-61
2022/05/11 13:25:49;;;;;;;1.10;0.70;;;31.30;1.00;;;;;;5136911;27;20531;-60
2022/05/11 13:28:26;;;;;;;1.47;0.70;;;31.30;99.90;;;;;;5137508;27;20480;-59
2022/05/11 13:30:56;;;;;;;0.70;0.60;;;31.50;99.90;;;;;;5135933;27;20454;-59
2022/05/11 13:33:40;;;;;;;1.90;0.63;;;31.80;99.90;;;;;;5136733;27;20448;-61
2022/05/11 13:36:16;;;;;;;0.80;0.80;;;31.30;99.90;;;;;;5136458;27;20524;-60
2022/05/11 13:38:51;;;;;;;2.90;1.97;;;31.30;99.90;;;;;;5136560;27;20538;-61
2022/05/11 13:41:22;;;;;;;1.07;0.60;;;31.30;99.90;;;;;;5136574;27;20499;-60
2022/05/11 13:43:54;;;;;;;0.90;0.70;;;31.60;99.90;;;;;;5136942;27;20910;-60
2022/05/11 13:46:35;;;;;;;0.80;0.60;;;31.60;99.90;;;;;;5135479;27;20455;-60
2022/05/11 13:49:25;;;;;;;1.23;0.60;;;31.20;99.90;;;;;;5133568;27;20486;-60
2022/05/11 13:51:52;;;;;;;1.00;0.73;;;31.00;99.90;;;;;;5129541;27;20448;-60
2022/05/11 13:54:24;;;;;;;2.00;0.63;;;31.30;99.90;;;;;;5134865;27;20527;-60
2022/05/11 13:57:01;;;;;;;0.80;0.60;;;31.60;99.90;;;;;;5135592;27;20975;-59
2022/05/11 13:59:30;;;;;;;0.80;0.60;;;31.30;99.90;;;;;;5136282;27;20995;-59
2022/05/11 14:01:59;;;;;;;0.70;0.60;;;31.40;99.90;;;;;;5135294;27;20571;-58
2022/05/11 14:04:31;;;;;;;0.80;0.70;;;31.40;99.90;;;;;;5134845;27;20477;-58
2022/05/11 14:07:01;;;;;;;1.90;0.70;;;31.20;99.90;;;;;;5127816;27;20447;-58
2022/05/11 14:09:30;;;;;;;0.70;0.60;;;30.90;99.90;;;;;;5133189;27;20562;-58
2022/05/11 14:11:57;;;;;;;0.77;0.60;;;31.10;99.90;;;;;;5134323;27;20491;-58
2022/05/11 14:14:24;;;;;;;2.00;0.70;;;31.20;99.90;;;;;;5133261;27;20558;-58
2022/05/11 14:16:52;;;;;;;0.90;0.70;;;31.40;99.90;;;;;;5135485;27;20743;-58
2022/05/11 14:19:22;;;;;;;0.90;0.60;;;31.50;99.90;;;;;;5134487;27;20566;-59
2022/05/11 14:21:50;;;;;;;0.87;0.70;;;31.40;99.90;;;;;;5134327;27;21108;-58
2022/05/11 14:24:18;;;;;;;0.80;0.70;;;31.10;99.90;;;;;;5135566;27;20440;-58
2022/05/11 14:26:45;;;;;;;0.90;0.70;;;30.90;99.90;;;;;;5134323;27;20491;-59